Time;durP1;ratioP1;P1;durP2;ratioP2;P2;SDS_P1;SDS_P2;PMS_P1;PMS_P2;Temp;Humidity;BMP_temperature;BMP_pressure;BME280_temperature;BME280_humidity;BME280_pressure;Samples;Min_cycle;Max_cycle;Signal;HPM_P1;HPM_P2
2022/04/11 00:02:00;;;;;;;9.30;4.30;;;5.10;30.60;;;;;;5048566;28;20446;-75
2022/04/11 00:04:30;;;;;;;6.13;3.92;;;5.20;30.10;;;;;;5054964;28;20392;-75
2022/04/11 00:06:55;;;;;;;6.03;4.40;;;5.20;30.30;;;;;;5057349;28;20400;-75
2022/04/11 00:09:21;;;;;;;9.43;5.50;;;5.20;30.40;;;;;;5059753;28;20472;-75
2022/04/11 00:11:49;;;;;;;7.17;4.70;;;5.20;30.20;;;;;;5058490;28;20988;-75
2022/04/11 00:14:15;;;;;;;8.80;4.70;;;5.10;30.60;;;;;;5062470;28;20467;-75
2022/04/11 00:16:41;;;;;;;7.20;4.30;;;5.20;30.30;;;;;;5071768;28;20401;-75
2022/04/11 00:19:08;;;;;;;11.45;4.68;;;5.10;30.20;;;;;;5066226;28;20419;-76
2022/04/11 00:21:34;;;;;;;6.70;3.60;;;5.20;29.80;;;;;;5050706;28;20395;-76
2022/04/11 00:24:00;;;;;;;9.88;4.70;;;5.20;30.00;;;;;;5056753;28;20420;-76
2022/04/11 00:26:26;;;;;;;9.07;3.97;;;5.20;30.00;;;;;;5061569;28;20385;-76
2022/04/11 00:28:53;;;;;;;8.10;3.85;;;5.30;30.60;;;;;;5060025;28;20412;-76
2022/04/11 00:31:19;;;;;;;8.68;4.53;;;5.20;29.70;;;;;;5054416;28;20862;-75
2022/04/11 00:33:44;;;;;;;8.32;4.60;;;5.20;29.70;;;;;;5056618;28;20560;-76
2022/04/11 00:36:10;;;;;;;9.57;4.05;;;5.20;29.40;;;;;;5056023;28;20400;-76
2022/04/11 00:38:35;;;;;;;7.55;3.92;;;5.30;29.10;;;;;;5055845;28;20397;-76
2022/04/11 00:41:01;;;;;;;9.85;4.50;;;5.20;29.40;;;;;;5039702;28;20852;-75
2022/04/11 00:43:38;;;;;;;6.90;4.28;;;5.20;29.50;;;;;;5054684;28;20389;-76
2022/04/11 00:46:05;;;;;;;7.28;4.43;;;5.20;29.40;;;;;;5056967;28;20385;-76
2022/04/11 00:48:31;;;;;;;7.65;4.60;;;5.20;29.60;;;;;;5051522;28;20478;-76
2022/04/11 00:51:08;;;;;;;10.35;4.43;;;5.20;29.50;;;;;;5048909;28;20938;-76
2022/04/11 00:53:38;;;;;;;9.05;4.68;;;5.20;29.70;;;;;;5056067;28;20435;-76
2022/04/11 00:56:04;;;;;;;5.75;4.18;;;5.20;29.40;;;;;;5056745;28;20401;-76
2022/04/11 00:58:30;;;;;;;8.35;3.95;;;5.20;30.00;;;;;;5054945;28;20431;-74
2022/04/11 01:00:56;;;;;;;9.63;5.47;;;5.20;30.00;;;;;;5050795;28;20526;-74
2022/04/11 01:03:22;;;;;;;8.53;4.20;;;5.30;29.80;;;;;;5051887;28;20432;-76
2022/04/11 01:05:48;;;;;;;7.80;4.20;;;5.30;29.40;;;;;;5055164;28;20393;-76
2022/04/11 01:08:13;;;;;;;12.20;4.55;;;5.30;29.50;;;;;;5052561;28;20443;-75
2022/04/11 01:10:39;;;;;;;8.68;4.63;;;5.30;29.50;;;;;;5054861;28;20468;-75
2022/04/11 01:13:05;;;;;;;7.30;4.18;;;5.20;29.80;;;;;;5054689;28;20455;-75
2022/04/11 01:15:31;;;;;;;6.77;4.40;;;5.30;29.90;;;;;;5053302;28;20405;-76
2022/04/11 01:17:56;;;;;;;6.63;4.50;;;5.30;29.90;;;;;;5039046;28;20790;-75
2022/04/11 01:20:22;;;;;;;6.57;4.50;;;5.30;30.50;;;;;;5052997;28;20393;-75
2022/04/11 01:22:48;;;;;;;6.80;4.20;;;5.30;30.20;;;;;;5051511;28;20419;-76
2022/04/11 01:25:15;;;;;;;10.60;5.03;;;5.40;29.50;;;;;;5055177;28;20393;-76
2022/04/11 01:27:44;;;;;;;9.27;4.88;;;5.40;30.00;;;;;;5054548;28;20400;-76
2022/04/11 01:30:12;;;;;;;9.02;5.10;;;5.40;29.90;;;;;;5047188;28;20925;-74
2022/04/11 01:32:38;;;;;;;7.72;4.47;;;5.40;29.30;;;;;;5052811;28;20404;-74
2022/04/11 01:35:05;;;;;;;9.10;4.50;;;5.50;30.10;;;;;;5053126;28;20468;-75
2022/04/11 01:37:30;;;;;;;9.07;4.30;;;5.50;29.70;;;;;;5052358;28;20405;-75
2022/04/11 01:39:56;;;;;;;10.10;4.77;;;5.50;29.60;;;;;;5051377;28;20412;-76
2022/04/11 01:42:22;;;;;;;8.30;4.17;;;5.60;29.20;;;;;;5052696;28;20393;-76
2022/04/11 01:44:47;;;;;;;9.00;4.68;;;5.60;28.90;;;;;;5048628;28;20444;-74
2022/04/11 01:47:13;;;;;;;8.27;4.78;;;5.70;28.40;;;;;;5053827;28;20443;-75
2022/04/11 01:49:39;;;;;;;9.40;4.38;;;5.70;28.40;;;;;;5053133;28;20815;-74
2022/04/11 01:52:05;;;;;;;8.07;4.80;;;5.70;28.20;;;;;;5064646;23;20431;-73
2022/04/11 01:54:31;;;;;;;8.38;4.10;;;5.70;28.80;;;;;;5033278;28;20472;-73
2022/04/11 01:56:56;;;;;;;6.40;3.90;;;5.80;28.00;;;;;;5050756;28;20436;-73
2022/04/11 01:59:22;;;;;;;6.28;4.22;;;5.80;27.30;;;;;;5026866;28;20457;-73
2022/04/11 02:01:48;;;;;;;10.57;4.55;;;5.90;27.30;;;;;;5047229;28;20394;-73
2022/04/11 02:04:13;;;;;;;9.52;4.32;;;5.90;27.40;;;;;;5030172;28;20901;-73
2022/04/11 02:06:39;;;;;;;6.80;3.90;;;5.90;27.90;;;;;;5029632;28;20464;-73
2022/04/11 02:09:05;;;;;;;7.05;4.15;;;5.90;27.60;;;;;;5042310;28;20401;-73
2022/04/11 02:11:32;;;;;;;7.57;4.38;;;6.00;27.50;;;;;;5048014;28;20893;-72
2022/04/11 02:13:58;;;;;;;7.47;4.10;;;6.00;26.80;;;;;;5044778;28;20500;-73
2022/04/11 02:16:23;;;;;;;5.85;3.60;;;6.00;26.30;;;;;;5032205;28;20405;-73
2022/04/11 02:18:49;;;;;;;6.17;3.23;;;6.00;25.90;;;;;;5039076;28;20402;-73
2022/04/11 02:21:14;;;;;;;8.93;4.40;;;6.00;25.90;;;;;;5035660;28;20398;-73
2022/04/11 02:23:40;;;;;;;6.03;3.97;;;6.00;25.90;;;;;;5043685;28;20781;-72
2022/04/11 02:26:06;;;;;;;6.87;4.00;;;6.00;26.00;;;;;;5038377;28;20943;-72
2022/04/11 02:28:32;;;;;;;6.60;4.40;;;6.00;26.10;;;;;;5047540;28;20758;-72
2022/04/11 02:30:57;;;;;;;12.95;4.40;;;6.00;26.20;;;;;;5037214;28;20417;-73
2022/04/11 02:33:23;;;;;;;8.50;4.20;;;5.90;26.50;;;;;;5040384;28;20401;-73
2022/04/11 02:35:48;;;;;;;6.00;4.60;;;5.90;26.30;;;;;;5033952;28;20406;-71
2022/04/11 02:38:14;;;;;;;5.78;4.22;;;5.90;26.30;;;;;;5026416;28;20402;-74
2022/04/11 02:40:40;;;;;;;9.70;4.28;;;5.90;26.50;;;;;;5032629;28;20403;-73
2022/04/11 02:43:05;;;;;;;6.72;4.05;;;5.90;26.40;;;;;;5037236;28;20904;-74
2022/04/11 02:45:31;;;;;;;6.07;4.05;;;5.90;26.60;;;;;;5032633;28;20426;-73
2022/04/11 02:47:57;;;;;;;6.80;3.90;;;5.90;26.30;;;;;;5045144;28;20402;-72
2022/04/11 02:50:22;;;;;;;7.00;4.17;;;5.90;25.80;;;;;;5036061;28;20435;-73
2022/04/11 02:52:48;;;;;;;7.55;4.30;;;5.90;26.00;;;;;;5037299;28;20429;-73
2022/04/11 02:55:14;;;;;;;7.07;4.60;;;5.90;26.60;;;;;;5032626;28;20883;-73
2022/04/11 02:57:40;;;;;;;10.68;4.30;;;5.80;27.10;;;;;;5032230;28;20472;-72
2022/04/11 03:00:12;;;;;;;7.15;4.22;;;5.80;27.20;;;;;;5033983;28;20951;-71
2022/04/11 03:02:37;;;;;;;7.47;4.30;;;5.80;27.50;;;;;;5032095;28;20883;-73
2022/04/11 03:05:03;;;;;;;6.57;3.60;;;5.80;27.10;;;;;;5033048;28;20404;-73
2022/04/11 03:07:29;;;;;;;8.30;4.15;;;5.70;27.10;;;;;;5032535;28;20452;-73
2022/04/11 03:09:55;;;;;;;5.13;4.03;;;5.80;26.70;;;;;;5038352;28;20389;-73
2022/04/11 03:12:21;;;;;;;7.30;4.10;;;5.70;27.00;;;;;;5042503;28;20406;-73
2022/04/11 03:14:49;;;;;;;8.73;3.80;;;5.70;27.70;;;;;;5032792;28;21135;-73
2022/04/11 03:17:15;;;;;;;7.43;3.70;;;5.70;27.40;;;;;;5032435;28;20447;-73
2022/04/11 03:19:42;;;;;;;6.25;4.30;;;5.60;27.50;;;;;;5031955;28;20407;-73
2022/04/11 03:22:09;;;;;;;5.97;4.00;;;5.60;27.50;;;;;;5037993;28;20771;-73
2022/04/11 03:24:34;;;;;;;16.83;3.80;;;5.60;28.00;;;;;;5036795;28;20878;-73
2022/04/11 03:27:01;;;;;;;5.93;4.30;;;5.60;28.00;;;;;;5033311;28;20484;-72
2022/04/11 03:29:26;;;;;;;4.90;3.90;;;5.50;28.10;;;;;;5035383;28;20475;-73
2022/04/11 03:31:52;;;;;;;8.45;4.40;;;5.40;28.30;;;;;;5043279;28;20821;-73
2022/04/11 03:34:18;;;;;;;7.20;3.80;;;5.40;28.70;;;;;;5041195;28;20501;-73
2022/04/11 03:36:44;;;;;;;6.30;4.10;;;5.40;28.90;;;;;;5034717;28;20489;-73
2022/04/11 03:39:09;;;;;;;6.35;3.83;;;5.40;28.90;;;;;;5032828;28;20454;-72
2022/04/11 03:41:35;;;;;;;8.32;3.85;;;5.40;28.70;;;;;;5031656;28;20402;-73
2022/04/11 03:44:01;;;;;;;7.03;3.60;;;5.30;29.50;;;;;;5038514;28;20406;-73
2022/04/11 03:46:28;;;;;;;6.93;3.53;;;5.30;28.90;;;;;;5046636;28;20432;-73
2022/04/11 03:48:54;;;;;;;8.17;3.97;;;5.30;29.50;;;;;;5031300;28;20402;-72
2022/04/11 03:51:20;;;;;;;10.43;4.18;;;5.20;29.50;;;;;;5026199;28;20410;-72
2022/04/11 03:53:47;;;;;;;5.27;3.50;;;5.20;30.00;;;;;;5032113;28;20413;-73
2022/04/11 03:56:14;;;;;;;8.32;3.83;;;5.20;30.00;;;;;;5032507;28;20443;-73
2022/04/11 03:58:40;;;;;;;6.75;3.63;;;5.10;30.40;;;;;;5037326;28;20520;-72
2022/04/11 04:01:06;;;;;;;8.82;3.90;;;5.10;30.60;;;;;;5044570;28;20478;-73
2022/04/11 04:03:32;;;;;;;5.70;3.80;;;5.00;31.10;;;;;;5047171;28;20472;-72
2022/04/11 04:05:58;;;;;;;8.55;3.80;;;5.00;31.10;;;;;;5048330;28;20484;-72
2022/04/11 04:08:23;;;;;;;8.40;3.90;;;5.00;31.80;;;;;;5049589;28;20903;-73
2022/04/11 04:10:49;;;;;;;9.03;4.20;;;5.00;31.40;;;;;;5035885;28;20401;-73
2022/04/11 04:13:14;;;;;;;5.90;3.30;;;5.00;31.80;;;;;;5034341;28;20411;-73
2022/04/11 04:15:40;;;;;;;10.80;4.30;;;5.00;31.30;;;;;;5029140;28;20485;-73
2022/04/11 04:18:06;;;;;;;7.78;4.50;;;4.90;31.80;;;;;;5037594;28;21022;-73
2022/04/11 04:20:31;;;;;;;6.20;3.90;;;4.80;32.40;;;;;;5049402;28;20892;-72
2022/04/11 04:22:57;;;;;;;11.23;4.35;;;4.90;31.50;;;;;;5048174;28;20893;-73
2022/04/11 04:25:23;;;;;;;8.03;3.70;;;4.80;32.00;;;;;;5022670;28;20611;-73
2022/04/11 04:27:49;;;;;;;5.57;3.90;;;4.70;32.20;;;;;;5034604;28;20407;-73
2022/04/11 04:30:15;;;;;;;8.35;4.05;;;4.70;32.80;;;;;;5039522;28;20428;-73
2022/04/11 04:32:41;;;;;;;7.23;4.10;;;4.60;32.90;;;;;;5030133;28;20412;-73
2022/04/11 04:35:08;;;;;;;7.45;4.00;;;4.60;33.20;;;;;;5036634;28;20826;-72
2022/04/11 04:37:34;;;;;;;10.87;4.60;;;4.60;33.60;;;;;;5037697;28;20426;-73
2022/04/11 04:39:59;;;;;;;10.45;4.55;;;4.60;33.80;;;;;;5046899;28;20757;-72
2022/04/11 04:42:26;;;;;;;8.52;3.90;;;4.50;34.20;;;;;;5039851;28;20398;-73
2022/04/11 04:44:52;;;;;;;6.47;4.22;;;4.60;35.00;;;;;;5034340;28;20395;-73
2022/04/11 04:47:18;;;;;;;7.40;4.10;;;4.60;34.80;;;;;;5016684;28;20921;-72
2022/04/11 04:49:44;;;;;;;6.00;3.80;;;4.60;34.40;;;;;;5034250;28;20700;-73
2022/04/11 04:52:11;;;;;;;6.57;3.80;;;4.60;34.10;;;;;;5047069;28;20489;-71
2022/04/11 04:54:37;;;;;;;13.55;4.45;;;4.60;33.70;;;;;;5038986;28;20481;-71
2022/04/11 04:57:03;;;;;;;6.43;4.00;;;4.60;33.70;;;;;;5035085;28;20872;-73
2022/04/11 04:59:29;;;;;;;10.95;4.75;;;4.50;34.30;;;;;;5034599;28;20403;-71
2022/04/11 05:01:55;;;;;;;11.00;4.40;;;4.50;34.60;;;;;;5034943;28;20395;-73
2022/04/11 05:04:21;;;;;;;5.45;3.78;;;4.50;34.80;;;;;;5048749;28;20394;-72
2022/04/11 05:06:46;;;;;;;4.82;3.72;;;4.50;34.40;;;;;;5035714;28;20402;-73
2022/04/11 05:09:12;;;;;;;7.97;4.60;;;4.60;34.20;;;;;;5023596;28;20395;-72
2022/04/11 05:11:37;;;;;;;6.60;4.00;;;4.60;34.40;;;;;;5048152;28;20400;-72
2022/04/11 05:14:03;;;;;;;5.60;4.60;;;4.60;34.60;;;;;;5042701;28;20402;-72
2022/04/11 05:16:28;;;;;;;10.33;3.83;;;4.60;34.60;;;;;;5026532;28;20481;-72
2022/04/11 05:18:54;;;;;;;7.47;4.33;;;4.60;34.00;;;;;;5024250;28;20418;-71
2022/04/11 05:21:19;;;;;;;5.18;3.88;;;4.60;34.20;;;;;;5033315;28;20871;-72
2022/04/11 05:23:45;;;;;;;11.10;5.35;;;4.70;34.60;;;;;;5017390;28;20389;-72
2022/04/11 05:26:11;;;;;;;10.25;3.85;;;4.70;34.80;;;;;;5033423;28;20855;-73
2022/04/11 05:28:36;;;;;;;5.00;4.30;;;4.70;34.90;;;;;;5040340;28;20409;-73
2022/04/11 05:31:02;;;;;;;7.03;4.00;;;4.90;33.80;;;;;;5039083;28;20484;-73
2022/04/11 05:33:27;;;;;;;9.15;4.47;;;4.90;33.60;;;;;;5036691;28;20395;-73
2022/04/11 05:35:55;;;;;;;10.32;4.35;;;4.90;33.70;;;;;;5044874;28;20389;-73
2022/04/11 05:38:20;;;;;;;9.00;4.10;;;5.10;32.80;;;;;;5033585;28;20411;-73
2022/04/11 05:40:46;;;;;;;9.97;4.10;;;5.20;32.70;;;;;;5040369;28;20447;-71
2022/04/11 05:43:15;;;;;;;10.37;4.27;;;5.30;32.50;;;;;;5045349;28;20488;-72
2022/04/11 05:45:41;;;;;;;9.77;4.50;;;5.40;31.60;;;;;;5033021;28;20398;-73
2022/04/11 05:48:08;;;;;;;8.65;4.50;;;5.50;31.00;;;;;;5034056;28;20490;-73
2022/04/11 05:50:33;;;;;;;10.15;4.65;;;5.60;30.40;;;;;;5035415;28;20447;-73
2022/04/11 05:53:00;;;;;;;10.33;4.40;;;5.70;30.40;;;;;;5042355;28;20419;-72
2022/04/11 05:55:26;;;;;;;7.65;4.22;;;5.80;30.30;;;;;;5027103;28;20456;-73
2022/04/11 05:57:52;;;;;;;6.45;4.30;;;5.90;29.60;;;;;;5032868;28;20983;-72
2022/04/11 06:00:19;;;;;;;9.13;4.70;;;6.00;29.40;;;;;;5038061;28;20401;-72
2022/04/11 06:02:45;;;;;;;8.13;4.10;;;6.10;29.50;;;;;;5032688;28;20922;-73
2022/04/11 06:05:10;;;;;;;8.93;4.40;;;6.20;28.50;;;;;;5034861;28;20429;-74
2022/04/11 06:07:36;;;;;;;7.57;4.70;;;6.40;27.90;;;;;;5029968;28;20502;-73
2022/04/11 06:10:03;;;;;;;8.15;4.63;;;6.50;28.10;;;;;;5038893;28;20399;-72
2022/04/11 06:12:29;;;;;;;5.35;3.80;;;6.60;27.00;;;;;;5028977;28;20413;-73
2022/04/11 06:14:54;;;;;;;10.47;5.20;;;6.70;26.30;;;;;;5044433;28;20393;-73
2022/04/11 06:17:23;;;;;;;7.70;4.50;;;6.80;26.10;;;;;;5034122;28;20393;-73
2022/04/11 06:19:52;;;;;;;5.38;4.07;;;6.90;25.90;;;;;;5039543;28;20414;-73
2022/04/11 06:22:18;;;;;;;7.95;4.40;;;7.00;25.20;;;;;;5034123;28;20896;-74
2022/04/11 06:24:44;;;;;;;8.70;4.30;;;7.10;24.80;;;;;;5032643;28;20453;-72
2022/04/11 06:27:10;;;;;;;10.98;3.95;;;7.20;25.70;;;;;;5032597;28;20477;-74
2022/04/11 06:29:36;;;;;;;10.30;4.73;;;7.30;25.00;;;;;;5035438;28;20488;-72
2022/04/11 06:32:04;;;;;;;5.20;3.40;;;7.30;25.50;;;;;;5018214;28;20489;-73
2022/04/11 06:34:30;;;;;;;7.88;4.10;;;7.50;24.40;;;;;;5028674;28;20865;-74
2022/04/11 06:36:56;;;;;;;6.45;4.00;;;7.50;24.00;;;;;;5046151;28;20389;-74
2022/04/11 06:39:22;;;;;;;8.40;4.30;;;7.60;24.00;;;;;;5040091;28;20410;-73
2022/04/11 06:41:47;;;;;;;7.85;4.60;;;7.70;23.70;;;;;;5042612;28;20423;-72
2022/04/11 06:44:13;;;;;;;11.85;4.70;;;7.80;23.70;;;;;;5038827;28;20410;-73
2022/04/11 06:46:38;;;;;;;11.68;4.97;;;7.80;23.50;;;;;;5031661;28;20476;-73
2022/04/11 06:49:04;;;;;;;12.95;4.80;;;7.90;24.00;;;;;;5039273;28;20553;-72
2022/04/11 06:51:30;;;;;;;7.68;4.60;;;8.00;24.10;;;;;;5040705;28;20394;-73
2022/04/11 06:53:55;;;;;;;4.68;3.50;;;8.10;22.40;;;;;;5029787;28;20419;-72
2022/04/11 06:56:21;;;;;;;7.75;3.97;;;8.30;21.70;;;;;;5033006;28;20442;-74
2022/04/11 06:58:46;;;;;;;11.23;5.05;;;8.40;22.50;;;;;;5037919;28;20735;-73
2022/04/11 07:01:12;;;;;;;10.00;3.97;;;8.50;22.40;;;;;;5034826;28;20383;-72
2022/04/11 07:03:37;;;;;;;8.55;4.45;;;8.60;21.10;;;;;;5035860;28;20480;-73
2022/04/11 07:06:03;;;;;;;5.73;3.80;;;8.70;22.50;;;;;;5031241;28;20850;-73
2022/04/11 07:08:29;;;;;;;8.35;4.75;;;8.80;21.00;;;;;;5035103;28;20410;-72
2022/04/11 07:10:56;;;;;;;11.77;4.60;;;8.90;20.70;;;;;;5031531;28;20469;-72
2022/04/11 07:13:22;;;;;;;7.22;4.13;;;9.00;21.70;;;;;;5029092;28;20408;-72
2022/04/11 07:15:47;;;;;;;8.30;4.00;;;9.20;21.50;;;;;;5022073;28;20892;-73
2022/04/11 07:18:13;;;;;;;6.78;3.90;;;9.20;20.70;;;;;;5030528;28;20469;-72
2022/04/11 07:20:38;;;;;;;8.80;4.10;;;9.30;20.00;;;;;;5027906;28;20427;-74
2022/04/11 07:23:04;;;;;;;6.05;4.13;;;9.40;19.90;;;;;;5033917;28;20405;-69
2022/04/11 07:25:30;;;;;;;10.05;5.50;;;9.50;20.70;;;;;;5034086;28;20401;-70
2022/04/11 07:27:56;;;;;;;11.55;4.63;;;9.60;20.00;;;;;;5032930;28;20876;-73
2022/04/11 07:30:21;;;;;;;11.10;5.10;;;9.60;21.10;;;;;;5035959;28;20461;-72
2022/04/11 07:32:47;;;;;;;6.47;4.38;;;9.70;20.90;;;;;;5028965;28;20411;-73
2022/04/11 07:35:12;;;;;;;10.77;4.50;;;9.80;20.80;;;;;;5032108;28;20887;-73
2022/04/11 07:37:38;;;;;;;7.90;3.85;;;9.80;19.70;;;;;;5033757;28;20903;-73
2022/04/11 07:40:04;;;;;;;11.70;4.70;;;10.00;19.50;;;;;;5014463;28;20413;-75
2022/04/11 07:42:30;;;;;;;7.00;4.05;;;10.00;19.00;;;;;;5039556;28;21498;-72
2022/04/11 07:44:56;;;;;;;8.50;4.40;;;10.00;19.30;;;;;;5016521;28;20399;-71
2022/04/11 07:47:21;;;;;;;8.02;4.30;;;10.10;19.60;;;;;;5036937;28;20405;-73
2022/04/11 07:49:47;;;;;;;10.00;4.20;;;10.20;19.10;;;;;;5038201;28;20476;-72
2022/04/11 07:52:13;;;;;;;9.50;4.20;;;10.30;19.00;;;;;;5044455;22;20446;-74
2022/04/11 07:54:38;;;;;;;9.05;5.20;;;10.40;18.70;;;;;;5029138;28;20411;-74
2022/04/11 07:57:04;;;;;;;10.75;4.82;;;10.40;18.50;;;;;;5032662;28;20477;-74
2022/04/11 07:59:30;;;;;;;8.57;4.35;;;10.50;18.30;;;;;;5032505;28;20922;-75
2022/04/11 08:01:56;;;;;;;6.47;4.20;;;10.60;17.30;;;;;;5027437;28;20399;-75
2022/04/11 08:04:21;;;;;;;9.83;4.37;;;10.60;17.10;;;;;;5033342;28;20422;-77
2022/04/11 08:06:47;;;;;;;7.80;4.23;;;10.70;17.30;;;;;;5018876;28;20812;-74
2022/04/11 08:09:12;;;;;;;15.93;4.10;;;10.80;17.80;;;;;;5032156;28;20438;-74
2022/04/11 08:11:38;;;;;;;7.97;4.20;;;10.90;16.80;;;;;;5032152;28;20402;-74
2022/04/11 08:14:03;;;;;;;10.15;4.20;;;11.00;15.60;;;;;;5032079;28;20395;-75
2022/04/11 08:16:29;;;;;;;9.15;4.20;;;11.10;15.90;;;;;;5032709;28;20395;-75
2022/04/11 08:18:54;;;;;;;11.25;4.50;;;11.10;16.30;;;;;;5024908;28;20452;-75
2022/04/11 08:21:20;;;;;;;9.05;4.60;;;11.20;16.00;;;;;;5031672;28;20415;-74
2022/04/11 08:23:46;;;;;;;9.60;4.00;;;11.20;15.20;;;;;;5033206;28;20475;-75
2022/04/11 08:26:11;;;;;;;9.80;4.50;;;11.30;15.70;;;;;;5032911;28;20875;-74
2022/04/11 08:28:37;;;;;;;7.03;4.00;;;11.40;16.20;;;;;;5034250;28;20460;-74
2022/04/11 08:31:02;;;;;;;9.10;3.63;;;11.50;16.00;;;;;;5054742;28;20985;-75
2022/04/11 08:33:28;;;;;;;11.67;4.00;;;11.70;14.50;;;;;;5038646;28;20408;-74
2022/04/11 08:35:54;;;;;;;8.63;3.90;;;11.70;14.70;;;;;;5039380;28;20437;-75
2022/04/11 08:38:19;;;;;;;9.60;4.32;;;11.90;15.30;;;;;;5036873;28;20831;-74
2022/04/11 08:40:45;;;;;;;8.80;4.45;;;12.00;14.50;;;;;;5038577;28;20391;-75
2022/04/11 08:43:13;;;;;;;6.75;4.10;;;12.00;14.70;;;;;;5040923;28;20967;-75
2022/04/11 08:45:39;;;;;;;7.43;3.47;;;12.10;13.20;;;;;;5032563;28;20775;-74
2022/04/11 08:48:04;;;;;;;6.03;3.90;;;12.00;12.30;;;;;;5033064;28;20426;-74
2022/04/11 08:50:31;;;;;;;8.70;4.30;;;12.00;13.00;;;;;;5031722;28;20755;-76
2022/04/11 08:52:57;;;;;;;7.40;4.20;;;12.00;12.80;;;;;;5031697;28;20555;-75
2022/04/11 08:55:23;;;;;;;7.78;4.18;;;12.00;12.70;;;;;;5031630;28;20478;-74
2022/04/11 08:57:49;;;;;;;9.63;4.10;;;12.00;13.30;;;;;;5028739;28;20663;-74
2022/04/11 09:00:17;;;;;;;7.13;3.67;;;12.10;13.60;;;;;;5029504;28;20410;-72
2022/04/11 09:02:44;;;;;;;6.10;3.83;;;12.20;13.40;;;;;;5029248;28;20427;-75
2022/04/11 09:05:11;;;;;;;7.83;3.73;;;12.30;13.50;;;;;;5017132;28;20469;-74
2022/04/11 09:07:55;;;;;;;7.13;3.70;;;12.40;13.60;;;;;;5030753;28;20391;-73
2022/04/11 09:10:23;;;;;;;9.27;3.65;;;12.50;13.60;;;;;;5030301;28;20439;-74
2022/04/11 09:12:52;;;;;;;5.63;4.00;;;12.80;13.30;;;;;;5030789;28;20398;-73
2022/04/11 09:15:18;;;;;;;9.10;4.38;;;12.90;13.00;;;;;;5030775;28;20404;-76
2022/04/11 09:17:45;;;;;;;6.95;3.80;;;13.00;12.70;;;;;;5018266;28;20407;-75
2022/04/11 09:20:16;;;;;;;8.70;3.95;;;13.00;12.40;;;;;;5030099;28;20411;-76
2022/04/11 09:22:42;;;;;;;6.00;3.80;;;12.90;11.90;;;;;;5031754;28;20423;-75
2022/04/11 09:25:20;;;;;;;8.13;4.28;;;12.90;12.10;;;;;;5031899;28;20411;-75
2022/04/11 09:27:47;;;;;;;7.50;3.63;;;13.00;11.80;;;;;;5009483;28;20407;-75
2022/04/11 09:30:26;;;;;;;11.10;4.20;;;13.00;11.30;;;;;;5030903;28;20403;-74
2022/04/11 09:32:52;;;;;;;7.97;3.85;;;12.90;11.50;;;;;;5035544;28;20472;-73
2022/04/11 09:35:27;;;;;;;7.93;4.45;;;12.80;11.70;;;;;;5032903;28;20509;-75
2022/04/11 09:38:11;;;;;;;9.85;4.10;;;13.00;13.60;;;;;;5030088;28;20407;-74
2022/04/11 09:40:38;;;;;;;9.15;4.40;;;13.10;11.30;;;;;;5030137;28;20391;-74
2022/04/11 09:43:03;;;;;;;12.00;4.50;;;13.10;11.90;;;;;;5035297;28;20455;-74
2022/04/11 09:45:29;;;;;;;7.75;4.72;;;13.10;11.70;;;;;;5034350;28;20431;-72
2022/04/11 09:48:02;;;;;;;8.63;4.50;;;13.30;11.20;;;;;;5031713;28;20422;-73
2022/04/11 09:50:29;;;;;;;9.25;4.25;;;13.20;11.30;;;;;;5032044;28;21063;-75
2022/04/11 09:53:08;;;;;;;7.70;3.88;;;13.30;9.70;;;;;;5030026;28;20415;-77
2022/04/11 09:55:35;;;;;;;9.10;3.80;;;13.20;10.60;;;;;;5030483;28;20430;-75
2022/04/11 09:58:05;;;;;;;7.80;3.85;;;13.40;11.50;;;;;;5030331;28;20422;-74
2022/04/11 10:00:37;;;;;;;6.00;3.97;;;13.50;10.40;;;;;;5030484;28;20830;-75
2022/04/11 10:03:05;;;;;;;7.18;4.20;;;13.60;9.80;;;;;;5028812;28;20553;-76
2022/04/11 10:05:35;;;;;;;7.22;3.75;;;13.60;10.10;;;;;;5029271;28;20418;-74
2022/04/11 10:08:04;;;;;;;8.30;3.80;;;13.70;10.00;;;;;;5030095;28;20402;-74
2022/04/11 10:10:32;;;;;;;6.57;3.63;;;13.80;8.80;;;;;;5016129;28;20401;-72
2022/04/11 10:12:58;;;;;;;7.65;4.00;;;13.70;8.30;;;;;;5030096;28;20948;-74
2022/04/11 10:15:23;;;;;;;8.17;3.87;;;13.60;9.00;;;;;;5035243;28;20415;-73
2022/04/11 10:17:54;;;;;;;8.50;4.20;;;13.70;10.00;;;;;;5034504;28;20403;-74
2022/04/11 10:20:51;;;;;;;5.80;3.70;;;13.80;9.00;;;;;;5031514;28;20486;-74
2022/04/11 10:23:52;;;;;;;9.05;4.20;;;13.90;9.30;;;;;;5017788;28;20410;-75
2022/04/11 10:26:19;;;;;;;8.70;4.30;;;14.00;9.20;;;;;;5022353;28;20402;-74
2022/04/11 10:28:48;;;;;;;9.55;3.83;;;13.90;9.00;;;;;;5026459;28;20402;-75
2022/04/11 10:31:15;;;;;;;7.55;3.55;;;14.00;9.00;;;;;;5028621;28;20391;-75
2022/04/11 10:33:51;;;;;;;9.15;3.50;;;14.20;8.20;;;;;;5018093;28;20406;-75
2022/04/11 10:36:37;;;;;;;8.13;4.20;;;14.20;8.70;;;;;;5028656;28;20399;-75
2022/04/11 10:39:15;;;;;;;7.72;4.22;;;14.30;9.20;;;;;;5029033;28;20411;-75
2022/04/11 10:42:03;;;;;;;8.82;4.10;;;14.30;8.40;;;;;;5029311;28;20403;-75
2022/04/11 10:44:41;;;;;;;8.35;4.50;;;14.40;8.30;;;;;;5028989;28;20405;-75
2022/04/11 10:47:10;;;;;;;6.57;4.15;;;14.50;8.80;;;;;;5030247;28;20449;-74
2022/04/11 10:49:45;;;;;;;8.55;4.00;;;14.50;9.10;;;;;;5028560;28;20402;-75
2022/04/11 10:52:33;;;;;;;6.75;3.70;;;14.50;8.50;;;;;;5029184;28;20411;-75
2022/04/11 10:55:17;;;;;;;9.07;4.00;;;14.60;7.60;;;;;;5029429;28;20444;-76
2022/04/11 10:57:47;;;;;;;8.85;3.40;;;14.60;8.90;;;;;;5029070;28;20407;-76
2022/04/11 11:00:14;;;;;;;7.05;3.72;;;14.60;6.80;;;;;;5029073;28;20880;-72
2022/04/11 11:03:09;;;;;;;8.40;4.03;;;14.50;7.10;;;;;;5028848;28;20493;-75
2022/04/11 11:05:43;;;;;;;5.40;3.70;;;14.50;6.70;;;;;;5028707;28;20391;-75
2022/04/11 11:08:12;;;;;;;5.57;3.85;;;14.60;8.40;;;;;;5026600;28;20401;-74
2022/04/11 11:10:55;;;;;;;7.32;4.05;;;14.70;7.30;;;;;;5011810;28;20419;-74
2022/04/11 11:13:43;;;;;;;7.50;3.80;;;14.90;8.20;;;;;;5030427;28;20490;-74
2022/04/11 11:16:12;;;;;;;8.60;4.22;;;15.00;6.80;;;;;;5029782;28;20407;-75
2022/04/11 11:18:50;;;;;;;7.82;3.67;;;15.00;6.90;;;;;;5031422;28;20744;-74
2022/04/11 11:21:27;;;;;;;5.22;3.65;;;15.10;6.90;;;;;;5034139;28;20398;-75
2022/04/11 11:24:02;;;;;;;8.10;4.15;;;15.10;6.10;;;;;;5033476;28;20417;-73
2022/04/11 11:26:40;;;;;;;7.10;4.40;;;15.30;7.90;;;;;;5030379;28;20755;-76
2022/04/11 11:29:21;;;;;;;8.55;3.50;;;15.30;6.00;;;;;;5033390;28;20399;-75
2022/04/11 11:31:51;;;;;;;6.88;3.60;;;15.30;6.80;;;;;;5033440;28;20456;-76
2022/04/11 11:34:19;;;;;;;4.88;3.20;;;15.40;4.90;;;;;;5032611;28;20390;-73
2022/04/11 11:36:46;;;;;;;9.45;3.60;;;15.40;4.90;;;;;;5023436;28;20472;-74
2022/04/11 11:39:16;;;;;;;8.45;4.18;;;15.50;5.70;;;;;;5044349;28;20974;-75
2022/04/11 11:41:43;;;;;;;7.07;3.70;;;15.60;6.10;;;;;;5036132;28;20477;-74
2022/04/11 11:44:09;;;;;;;6.90;3.72;;;15.60;6.00;;;;;;5046161;28;20409;-73
2022/04/11 11:46:53;;;;;;;10.20;3.70;;;15.70;5.20;;;;;;5047667;28;20391;-73
2022/04/11 11:49:20;;;;;;;5.33;3.70;;;15.70;6.40;;;;;;5039059;28;20411;-75
2022/04/11 11:51:46;;;;;;;6.22;3.83;;;15.70;4.40;;;;;;5031001;28;20445;-74
2022/04/11 11:54:13;;;;;;;9.60;4.50;;;15.70;4.30;;;;;;5029529;28;20514;-75
2022/04/11 11:56:47;;;;;;;9.73;3.50;;;15.70;4.90;;;;;;5032805;28;20426;-75
2022/04/11 11:59:17;;;;;;;9.02;3.95;;;15.70;4.20;;;;;;5028290;28;20417;-74
2022/04/11 12:04:40;;;;;;;7.93;3.70;;;15.90;6.70;;;;;;5029807;28;20402;-76
2022/04/11 12:07:06;;;;;;;5.55;3.38;;;16.00;5.10;;;;;;5031389;28;20417;-76
2022/04/11 12:09:36;;;;;;;10.90;3.47;;;16.10;4.10;;;;;;5030494;28;20414;-76
2022/04/11 12:12:06;;;;;;;6.40;3.40;;;16.20;4.90;;;;;;5016067;28;20426;-77
2022/04/11 12:15:01;;;;;;;7.57;4.30;;;16.30;5.40;;;;;;5015183;28;20521;-75
2022/04/11 12:17:37;;;;;;;7.50;4.03;;;16.50;6.10;;;;;;5030527;28;20977;-75
2022/04/11 12:20:07;;;;;;;7.20;3.80;;;16.60;6.00;;;;;;5032839;28;20399;-76
2022/04/11 12:22:33;;;;;;;7.25;3.25;;;16.70;5.40;;;;;;5031157;28;21751;-75
2022/04/11 12:24:58;;;;;;;4.50;3.13;;;17.00;4.20;;;;;;5031310;28;20403;-76
2022/04/11 12:27:24;;;;;;;6.72;3.42;;;17.10;4.60;;;;;;5031388;28;20410;-82
2022/04/11 12:29:50;;;;;;;10.02;3.60;;;17.10;3.50;;;;;;5031659;28;20772;-75
2022/04/11 12:32:16;;;;;;;7.07;3.65;;;17.20;4.30;;;;;;5032301;28;20430;-75
2022/04/11 12:34:44;;;;;;;4.57;3.33;;;17.10;3.10;;;;;;5032948;28;20430;-76
2022/04/11 12:37:16;;;;;;;4.50;2.95;;;17.20;4.00;;;;;;5029604;28;20484;-75
2022/04/11 12:40:04;;;;;;;5.75;3.08;;;17.10;3.20;;;;;;5034423;28;20411;-75
2022/04/11 12:42:30;;;;;;;5.13;3.10;;;17.10;3.50;;;;;;5032289;28;20399;-75
2022/04/11 12:45:08;;;;;;;4.95;2.90;;;17.30;2.60;;;;;;5031515;28;20558;-76
2022/04/11 12:48:19;;;;;;;6.35;3.20;;;17.50;2.20;;;;;;5016931;28;20462;-73
2022/04/11 12:50:47;;;;;;;5.65;3.17;;;17.50;1.30;;;;;;5028682;28;20397;-74
2022/04/11 12:53:13;;;;;;;4.88;3.20;;;17.30;1.20;;;;;;5033387;28;20399;-73
2022/04/11 12:55:39;;;;;;;4.27;2.60;;;17.30;1.50;;;;;;5028440;28;20918;-78
2022/04/11 12:58:06;;;;;;;6.03;3.00;;;17.30;2.40;;;;;;5032719;28;20485;-75
2022/04/11 13:00:39;;;;;;;6.47;2.95;;;17.50;1.00;;;;;;5032072;28;20406;-76